createdAt,value
2023-05-16T00:01:40.185Z,12.70
2023-05-16T00:06:02.695Z,12.32
2023-05-16T00:10:25.074Z,10.93
2023-05-16T00:14:48.191Z,10.60
2023-05-16T00:19:13.089Z,10.70
2023-05-16T00:23:35.218Z,11.05
2023-05-16T00:27:57.681Z,11.70
2023-05-16T00:32:19.618Z,11.50
2023-05-16T00:36:41.539Z,11.40
2023-05-16T00:41:04.628Z,13.57
2023-05-16T00:45:26.599Z,13.15
2023-05-16T00:49:49.000Z,13.27
2023-05-16T00:54:12.287Z,14.77
2023-05-16T00:58:35.675Z,14.45
2023-05-16T01:02:57.949Z,13.70
2023-05-16T01:07:20.318Z,15.15
2023-05-16T01:12:26.917Z,14.50
2023-05-16T01:17:22.100Z,14.57
2023-05-16T01:22:09.654Z,16.63
2023-05-16T01:26:32.834Z,14.68
2023-05-16T01:30:55.702Z,16.88
2023-05-16T01:35:18.993Z,17.05
2023-05-16T01:39:57.875Z,17.48
2023-05-16T01:44:31.886Z,17.60
2023-05-16T01:49:17.293Z,19.00
2023-05-16T01:53:40.075Z,17.83
2023-05-16T01:58:05.213Z,19.08
2023-05-16T02:02:27.094Z,19.13
2023-05-16T02:06:49.371Z,18.02
2023-05-16T02:11:11.860Z,19.77
2023-05-16T02:15:33.965Z,18.13
2023-05-16T02:19:55.963Z,17.58
2023-05-16T02:24:18.005Z,17.17
2023-05-16T02:28:40.172Z,16.38
2023-05-16T02:33:02.452Z,13.95
2023-05-16T02:37:25.514Z,13.68
2023-05-16T02:41:47.479Z,13.38
2023-05-16T02:46:33.497Z,13.93
2023-05-16T02:50:55.748Z,14.10
2023-05-16T02:55:22.410Z,13.57
2023-05-16T02:59:45.942Z,13.85
2023-05-16T03:04:08.568Z,13.02
2023-05-16T03:08:31.373Z,12.98
2023-05-16T03:12:54.264Z,13.88
2023-05-16T03:17:18.100Z,14.80
2023-05-16T03:21:41.153Z,16.17
2023-05-16T03:26:03.575Z,15.63
2023-05-16T03:30:26.481Z,15.65
2023-05-16T03:34:49.049Z,14.30
2023-05-16T03:39:11.844Z,13.68
2023-05-16T03:43:34.283Z,14.07
2023-05-16T03:47:56.661Z,13.45
2023-05-16T03:52:18.855Z,13.40
2023-05-16T03:56:40.996Z,12.93
2023-05-16T04:01:02.955Z,11.90
2023-05-16T04:05:25.300Z,11.63
2023-05-16T04:09:47.621Z,12.52
2023-05-16T04:14:09.732Z,12.40
2023-05-16T04:18:31.832Z,12.40
2023-05-16T04:22:54.179Z,12.35
2023-05-16T04:27:16.275Z,12.63
2023-05-16T04:31:38.118Z,12.60
2023-05-16T04:36:00.398Z,14.75
2023-05-16T04:40:22.719Z,12.95
2023-05-16T04:44:44.980Z,13.40
2023-05-16T04:49:07.092Z,13.00
2023-05-16T04:53:29.244Z,14.60
2023-05-16T04:57:51.180Z,15.05
2023-05-16T05:02:13.099Z,15.60
2023-05-16T05:06:35.488Z,14.02
2023-05-16T05:10:57.469Z,16.52
2023-05-16T05:15:19.712Z,16.25
2023-05-16T05:19:41.968Z,18.10
2023-05-16T05:24:04.623Z,18.48
2023-05-16T05:28:26.970Z,19.83
2023-05-16T05:32:49.220Z,19.50
2023-05-16T05:37:11.598Z,20.88
2023-05-16T05:41:33.927Z,21.63
2023-05-16T05:45:56.637Z,23.02
2023-05-16T05:50:19.313Z,21.83
2023-05-16T05:54:41.238Z,22.45
2023-05-16T05:59:03.528Z,22.23
2023-05-16T06:03:25.924Z,24.35
2023-05-16T06:07:48.116Z,23.52
2023-05-16T06:12:10.726Z,22.30
2023-05-16T06:16:33.019Z,25.13
2023-05-16T06:20:54.803Z,24.60
2023-05-16T06:25:17.176Z,22.58
2023-05-16T06:29:39.467Z,23.83
2023-05-16T06:34:01.723Z,23.83
2023-05-16T06:38:23.556Z,24.48
2023-05-16T06:42:45.700Z,24.45
2023-05-16T06:47:07.795Z,25.38
2023-05-16T06:51:30.140Z,26.55
2023-05-16T06:55:52.051Z,24.08
2023-05-16T07:00:15.279Z,25.27
2023-05-16T07:04:38.214Z,25.92
2023-05-16T07:09:00.839Z,23.83
2023-05-16T07:13:23.118Z,23.90
2023-05-16T07:17:45.172Z,21.38
2023-05-16T07:22:07.492Z,20.95
2023-05-16T07:26:29.469Z,21.60
2023-05-16T07:30:51.905Z,20.25
2023-05-16T07:35:13.703Z,18.88
2023-05-16T07:39:35.786Z,17.67
2023-05-16T07:43:57.952Z,16.77
2023-05-16T07:48:20.323Z,18.52
2023-05-16T07:52:42.352Z,17.67
2023-05-16T07:57:04.885Z,18.42
2023-05-16T08:01:26.783Z,17.85
2023-05-16T08:05:49.703Z,18.67
2023-05-16T08:10:13.454Z,17.38
2023-05-16T08:14:37.312Z,17.65
2023-05-16T08:18:59.604Z,16.17
2023-05-16T08:23:21.567Z,18.55
2023-05-16T08:27:45.633Z,19.27
2023-05-16T08:32:11.212Z,18.40
2023-05-16T08:36:35.762Z,18.13
2023-05-16T08:40:58.010Z,17.35
2023-05-16T08:45:20.353Z,17.90
2023-05-16T08:49:47.216Z,14.73
2023-05-16T08:54:13.721Z,16.27
2023-05-16T08:58:37.181Z,17.38
2023-05-16T09:02:59.529Z,16.90
2023-05-16T09:07:21.525Z,16.95
2023-05-16T09:11:43.739Z,17.50
2023-05-16T09:16:13.780Z,15.02
2023-05-16T09:20:35.680Z,15.95
2023-05-16T09:25:01.067Z,14.48
2023-05-16T09:29:23.148Z,15.35
2023-05-16T09:33:45.147Z,16.45
2023-05-16T09:38:13.660Z,16.75
2023-05-16T09:42:36.026Z,14.75
2023-05-16T09:46:58.347Z,14.85
2023-05-16T09:51:23.730Z,14.27
2023-05-16T09:55:46.123Z,13.10
2023-05-16T10:00:11.929Z,12.30
2023-05-16T10:04:37.369Z,11.77
2023-05-16T10:09:01.723Z,9.77
2023-05-16T10:13:31.002Z,8.15
2023-05-16T10:17:56.752Z,8.95
2023-05-16T10:22:20.336Z,7.22
2023-05-16T10:26:42.164Z,7.47
2023-05-16T10:31:05.580Z,6.80
2023-05-16T10:35:28.226Z,7.35
2023-05-16T10:39:52.292Z,6.85
2023-05-16T10:44:18.362Z,7.05
2023-05-16T10:48:42.596Z,6.40
2023-05-16T10:53:35.839Z,5.43
2023-05-16T10:57:58.082Z,5.57
2023-05-16T11:02:32.558Z,5.05
2023-05-16T11:06:58.266Z,5.05
2023-05-16T11:11:48.994Z,5.40
2023-05-16T11:16:30.702Z,4.90
2023-05-16T11:20:53.345Z,4.78
2023-05-16T11:25:15.304Z,4.63
2023-05-16T11:29:37.576Z,4.05
2023-05-16T11:33:59.592Z,3.40
2023-05-16T11:38:21.482Z,2.67
2023-05-16T11:42:50.223Z,2.67
2023-05-16T11:47:12.929Z,2.55
2023-05-16T11:51:39.095Z,2.40
2023-05-16T11:56:02.417Z,2.72
2023-05-16T12:00:26.717Z,3.17
2023-05-16T12:04:50.761Z,4.10
2023-05-16T12:09:16.885Z,3.17
2023-05-16T12:13:40.717Z,2.65
2023-05-16T12:18:03.692Z,2.20
2023-05-16T12:22:26.359Z,2.10
2023-05-16T12:26:48.491Z,3.10
2023-05-16T12:31:31.167Z,2.85
2023-05-16T12:35:54.792Z,2.08
2023-05-16T12:40:17.185Z,2.45
2023-05-16T12:44:39.462Z,2.42
2023-05-16T12:49:08.426Z,2.80
2023-05-16T12:53:41.378Z,2.60
2023-05-16T12:58:03.869Z,2.53
2023-05-16T13:02:26.334Z,2.55
2023-05-16T13:06:59.344Z,2.65
2023-05-16T13:11:22.201Z,3.00
2023-05-16T13:15:44.789Z,2.60
2023-05-16T13:20:15.532Z,3.50
2023-05-16T13:24:38.396Z,3.45
2023-05-16T13:29:02.437Z,2.88
2023-05-16T13:33:25.028Z,4.05
2023-05-16T13:37:47.109Z,3.92
2023-05-16T13:42:09.739Z,4.90
2023-05-16T13:46:31.759Z,3.90
2023-05-16T13:50:54.339Z,4.18
2023-05-16T13:55:16.628Z,3.33
2023-05-16T14:00:05.761Z,3.85
2023-05-16T14:04:21.875Z,3.50
2023-05-16T14:08:44.294Z,3.78
2023-05-16T14:13:06.574Z,3.47
2023-05-16T14:17:28.753Z,3.75
2023-05-16T14:21:53.011Z,3.53
2023-05-16T14:26:15.730Z,4.07
2023-05-16T14:30:37.884Z,3.30
2023-05-16T14:34:59.928Z,3.03
2023-05-16T14:39:22.043Z,3.53
2023-05-16T14:43:46.308Z,3.42
2023-05-16T14:48:08.853Z,3.33
2023-05-16T14:52:31.116Z,2.95
2023-05-16T14:56:53.161Z,2.67
2023-05-16T15:01:16.876Z,2.60
2023-05-16T15:05:39.313Z,3.30
2023-05-16T15:10:02.100Z,2.83
2023-05-16T15:14:24.357Z,2.70
2023-05-16T15:18:46.808Z,2.70
2023-05-16T15:23:08.837Z,3.15
2023-05-16T15:27:30.656Z,3.33
2023-05-16T15:31:52.825Z,3.20
2023-05-16T15:36:14.943Z,4.20
2023-05-16T15:40:37.158Z,2.67
2023-05-16T15:44:59.443Z,2.83
2023-05-16T15:49:22.009Z,3.20
2023-05-16T15:53:44.938Z,2.10
2023-05-16T15:58:07.200Z,3.25
2023-05-16T16:02:29.468Z,3.08
2023-05-16T16:06:51.431Z,3.60
2023-05-16T16:11:13.580Z,3.05
2023-05-16T16:15:36.283Z,2.63
2023-05-16T16:19:59.420Z,3.28
2023-05-16T16:24:21.436Z,2.50
2023-05-16T16:28:43.837Z,2.25
2023-05-16T16:33:05.748Z,1.98
2023-05-16T16:37:28.033Z,2.75
2023-05-16T16:41:50.373Z,3.53
2023-05-16T16:46:13.676Z,2.10
2023-05-16T16:50:35.973Z,2.53
2023-05-16T16:54:57.978Z,2.00
2023-05-16T16:59:20.081Z,2.10
2023-05-16T17:03:42.777Z,3.78
2023-05-16T17:08:05.316Z,2.20
2023-05-16T17:12:29.023Z,3.30
2023-05-16T17:16:51.756Z,1.95
2023-05-16T17:21:13.729Z,2.00
2023-05-16T17:25:36.277Z,2.17
2023-05-16T17:29:58.558Z,2.20
2023-05-16T17:34:21.254Z,2.13
2023-05-16T17:38:43.531Z,1.88
2023-05-16T17:43:05.817Z,2.50
2023-05-16T17:47:28.247Z,1.98
2023-05-16T17:51:54.298Z,2.10
2023-05-16T17:56:16.703Z,2.58
2023-05-16T18:00:38.764Z,1.83
2023-05-16T18:05:01.059Z,2.40
2023-05-16T18:09:23.318Z,2.22
2023-05-16T18:13:46.581Z,2.42
2023-05-16T18:18:09.050Z,2.58
2023-05-16T18:22:31.753Z,2.65
2023-05-16T18:26:54.053Z,2.63
2023-05-16T18:31:16.584Z,2.92
2023-05-16T18:35:38.993Z,2.50
2023-05-16T18:40:00.974Z,2.10
2023-05-16T18:44:23.218Z,2.67
2023-05-16T18:48:45.508Z,4.90
2023-05-16T18:53:08.204Z,3.60
2023-05-16T18:57:30.692Z,3.00
2023-05-16T19:01:52.532Z,2.53
2023-05-16T19:06:14.795Z,3.90
2023-05-16T19:10:38.737Z,4.63
2023-05-16T19:15:04.211Z,4.40
2023-05-16T19:19:28.901Z,4.97
2023-05-16T19:23:51.487Z,4.22
2023-05-16T19:28:15.569Z,3.67
2023-05-16T19:32:38.249Z,3.67
2023-05-16T19:37:02.388Z,2.90
2023-05-16T19:41:24.887Z,3.40
2023-05-16T19:45:47.355Z,2.65
2023-05-16T19:50:10.033Z,3.05
2023-05-16T19:54:32.219Z,2.97
2023-05-16T19:58:54.317Z,2.78
2023-05-16T20:03:16.559Z,2.92
2023-05-16T20:07:40.579Z,2.80
2023-05-16T20:12:03.322Z,19.88
2023-05-16T20:16:27.104Z,4.07
2023-05-16T20:20:49.182Z,3.53
2023-05-16T20:25:12.213Z,3.35
2023-05-16T20:29:34.456Z,3.22
2023-05-16T20:33:56.709Z,3.30
2023-05-16T20:38:19.246Z,3.45
2023-05-16T20:42:41.541Z,3.53
2023-05-16T20:47:03.795Z,3.88
2023-05-16T20:51:26.102Z,3.67
2023-05-16T20:55:48.327Z,3.08
2023-05-16T21:00:11.294Z,3.60
2023-05-16T21:04:33.580Z,3.50
2023-05-16T21:08:56.217Z,3.10
2023-05-16T21:13:18.456Z,2.80
2023-05-16T21:17:42.385Z,3.08
2023-05-16T21:22:05.600Z,3.00
2023-05-16T21:26:27.477Z,2.60
2023-05-16T21:30:49.310Z,2.72
2023-05-16T21:35:11.558Z,2.50
2023-05-16T21:39:33.782Z,4.78
2023-05-16T21:43:56.079Z,2.83
2023-05-16T21:48:20.966Z,2.30
2023-05-16T21:52:43.366Z,2.42
2023-05-16T21:57:06.687Z,2.88
2023-05-16T22:01:29.594Z,2.78
2023-05-16T22:05:51.686Z,3.40
2023-05-16T22:10:15.172Z,2.45
2023-05-16T22:14:37.360Z,2.65
2023-05-16T22:18:59.965Z,2.47
2023-05-16T22:23:22.322Z,2.10
2023-05-16T22:27:44.261Z,2.33
2023-05-16T22:32:10.865Z,2.13
2023-05-16T22:36:33.160Z,1.63
2023-05-16T22:40:55.528Z,2.47
2023-05-16T22:45:17.860Z,1.70
2023-05-16T22:49:40.252Z,2.10
2023-05-16T22:54:02.201Z,1.95
2023-05-16T22:58:24.460Z,2.05
2023-05-16T23:02:46.681Z,2.10
2023-05-16T23:07:08.518Z,1.80
2023-05-16T23:11:31.858Z,1.67
2023-05-16T23:15:54.017Z,2.13
2023-05-16T23:20:16.180Z,2.20
2023-05-16T23:24:38.178Z,2.88
2023-05-16T23:29:00.656Z,2.53
2023-05-16T23:33:22.675Z,2.70
2023-05-16T23:37:44.716Z,2.75
2023-05-16T23:42:06.897Z,2.88
2023-05-16T23:46:28.638Z,3.15
2023-05-16T23:50:51.756Z,2.70
2023-05-16T23:55:14.176Z,3.05
2023-05-16T23:59:36.140Z,3.17
